sensor_id;sensor_type;location;lat;lon;timestamp;pressure;altitude;pressure_sealevel;temperature;humidity
59435;BME280;45241;49.768;8.636;2022-12-07T00:01:15;100367.69;;;6.54;94.90
59435;BME280;45241;49.768;8.636;2022-12-07T00:03:41;100365.53;;;6.50;95.41
59435;BME280;45241;49.768;8.636;2022-12-07T00:06:08;100361.59;;;6.28;96.02
59435;BME280;45241;49.768;8.636;2022-12-07T00:08:34;100356.94;;;6.30;96.21
59435;BME280;45241;49.768;8.636;2022-12-07T00:13:28;100354.66;;;5.93;97.42
59435;BME280;45241;49.768;8.636;2022-12-07T00:15:54;100348.69;;;5.99;99.18
59435;BME280;45241;49.768;8.636;2022-12-07T00:18:19;100345.84;;;6.34;96.53
59435;BME280;45241;49.768;8.636;2022-12-07T00:20:44;100343.00;;;6.36;96.13
59435;BME280;45241;49.768;8.636;2022-12-07T00:23:09;100340.53;;;6.42;95.78
59435;BME280;45241;49.768;8.636;2022-12-07T00:25:34;100347.22;;;6.47;94.74
59435;BME280;45241;49.768;8.636;2022-12-07T00:28:00;100343.00;;;6.36;95.22
59435;BME280;45241;49.768;8.636;2022-12-07T00:30:25;100346.72;;;6.51;94.66
59435;BME280;45241;49.768;8.636;2022-12-07T00:32:50;100341.72;;;6.56;94.41
59435;BME280;45241;49.768;8.636;2022-12-07T00:35:15;100334.53;;;6.40;94.81
59435;BME280;45241;49.768;8.636;2022-12-07T00:37:40;100329.72;;;6.44;95.34
59435;BME280;45241;49.768;8.636;2022-12-07T00:40:06;100328.94;;;6.60;93.78
59435;BME280;45241;49.768;8.636;2022-12-07T00:42:31;100322.44;;;6.62;93.88
59435;BME280;45241;49.768;8.636;2022-12-07T00:44:56;100331.41;;;6.53;94.37
59435;BME280;45241;49.768;8.636;2022-12-07T00:47:22;100328.56;;;6.55;93.86
59435;BME280;45241;49.768;8.636;2022-12-07T00:49:47;100321.94;;;6.59;94.17
59435;BME280;45241;49.768;8.636;2022-12-07T00:52:12;100322.16;;;6.23;95.06
59435;BME280;45241;49.768;8.636;2022-12-07T00:54:37;100315.63;;;6.09;97.68
59435;BME280;45241;49.768;8.636;2022-12-07T00:57:02;100328.44;;;6.14;97.82
59435;BME280;45241;49.768;8.636;2022-12-07T00:59:28;100323.50;;;6.27;97.02
59435;BME280;45241;49.768;8.636;2022-12-07T01:01:53;100318.38;;;6.34;95.88
59435;BME280;45241;49.768;8.636;2022-12-07T01:04:18;100310.56;;;6.32;95.79
59435;BME280;45241;49.768;8.636;2022-12-07T01:06:43;100307.94;;;6.57;94.64
59435;BME280;45241;49.768;8.636;2022-12-07T01:09:08;100293.16;;;6.70;93.57
59435;BME280;45241;49.768;8.636;2022-12-07T01:11:34;100304.28;;;6.50;95.03
59435;BME280;45241;49.768;8.636;2022-12-07T01:13:59;100306.06;;;6.41;94.74
59435;BME280;45241;49.768;8.636;2022-12-07T01:16:25;100304.47;;;6.06;96.10
59435;BME280;45241;49.768;8.636;2022-12-07T01:18:51;100308.19;;;6.29;96.04
59435;BME280;45241;49.768;8.636;2022-12-07T01:21:21;100294.28;;;6.52;94.92
59435;BME280;45241;49.768;8.636;2022-12-07T01:23:47;100297.28;;;6.57;93.99
59435;BME280;45241;49.768;8.636;2022-12-07T01:26:13;100294.13;;;6.45;93.52
59435;BME280;45241;49.768;8.636;2022-12-07T01:28:39;100286.63;;;6.57;93.27
59435;BME280;45241;49.768;8.636;2022-12-07T01:31:05;100295.94;;;6.53;93.68
59435;BME280;45241;49.768;8.636;2022-12-07T01:33:32;100302.56;;;6.40;93.92
59435;BME280;45241;49.768;8.636;2022-12-07T01:36:02;100302.59;;;6.49;93.94
59435;BME280;45241;49.768;8.636;2022-12-07T01:38:27;100310.06;;;6.37;93.36
59435;BME280;45241;49.768;8.636;2022-12-07T01:40:53;100304.91;;;6.43;93.66
59435;BME280;45241;49.768;8.636;2022-12-07T01:43:19;100311.38;;;6.41;93.51
59435;BME280;45241;49.768;8.636;2022-12-07T01:45:45;100313.31;;;6.14;95.44
59435;BME280;45241;49.768;8.636;2022-12-07T01:48:10;100303.00;;;6.11;96.40
59435;BME280;45241;49.768;8.636;2022-12-07T01:50:37;100295.59;;;6.39;94.99
59435;BME280;45241;49.768;8.636;2022-12-07T01:53:03;100310.56;;;6.32;94.67
59435;BME280;45241;49.768;8.636;2022-12-07T01:55:30;100302.94;;;6.46;94.23
59435;BME280;45241;49.768;8.636;2022-12-07T01:57:55;100308.41;;;6.36;94.42
59435;BME280;45241;49.768;8.636;2022-12-07T02:00:20;100300.91;;;6.39;94.56
59435;BME280;45241;49.768;8.636;2022-12-07T02:05:14;100304.69;;;6.29;93.39
59435;BME280;45241;49.768;8.636;2022-12-07T02:07:40;100309.84;;;6.22;93.53
59435;BME280;45241;49.768;8.636;2022-12-07T02:10:15;100317.84;;;5.88;96.53
59435;BME280;45241;49.768;8.636;2022-12-07T02:12:40;100314.59;;;5.68;98.42
59435;BME280;45241;49.768;8.636;2022-12-07T02:15:06;100316.31;;;5.25;99.99
59435;BME280;45241;49.768;8.636;2022-12-07T02:17:39;100315.88;;;5.64;97.86
59435;BME280;45241;49.768;8.636;2022-12-07T02:20:17;100308.19;;;6.29;94.79
59435;BME280;45241;49.768;8.636;2022-12-07T02:22:54;100306.78;;;6.01;94.34
59435;BME280;45241;49.768;8.636;2022-12-07T02:25:30;100305.00;;;6.18;94.46
59435;BME280;45241;49.768;8.636;2022-12-07T02:30:46;100290.94;;;6.50;93.55
59435;BME280;45241;49.768;8.636;2022-12-07T02:33:28;100275.97;;;6.49;93.07
59435;BME280;45241;49.768;8.636;2022-12-07T02:36:02;100269.16;;;6.46;93.94
59435;BME280;45241;49.768;8.636;2022-12-07T02:38:31;100267.13;;;6.32;92.66
59435;BME280;45241;49.768;8.636;2022-12-07T02:41:13;100272.34;;;5.99;95.02
59435;BME280;45241;49.768;8.636;2022-12-07T02:43:43;100274.06;;;5.40;98.29
59435;BME280;45241;49.768;8.636;2022-12-07T02:46:11;100274.34;;;5.97;94.57
59435;BME280;45241;49.768;8.636;2022-12-07T02:48:39;100271.94;;;5.52;99.24
59435;BME280;45241;49.768;8.636;2022-12-07T02:51:06;100280.41;;;6.24;95.33
59435;BME280;45241;49.768;8.636;2022-12-07T02:53:32;100276.41;;;6.28;93.65
59435;BME280;45241;49.768;8.636;2022-12-07T02:55:59;100264.97;;;6.35;92.77
59435;BME280;45241;49.768;8.636;2022-12-07T02:58:40;100260.50;;;6.52;92.90
59435;BME280;45241;49.768;8.636;2022-12-07T03:01:14;100257.31;;;6.49;91.98
59435;BME280;45241;49.768;8.636;2022-12-07T03:03:45;100263.44;;;6.25;93.11
59435;BME280;45241;49.768;8.636;2022-12-07T03:06:31;100255.22;;;6.02;93.30
59435;BME280;45241;49.768;8.636;2022-12-07T03:09:04;100254.75;;;6.14;93.53
59435;BME280;45241;49.768;8.636;2022-12-07T03:11:41;100250.31;;;6.31;93.36
59435;BME280;45241;49.768;8.636;2022-12-07T03:14:18;100255.09;;;6.11;93.85
59435;BME280;45241;49.768;8.636;2022-12-07T03:17:30;100258.16;;;6.49;91.88
59435;BME280;45241;49.768;8.636;2022-12-07T03:19:35;100248.44;;;6.16;94.27
59435;BME280;45241;49.768;8.636;2022-12-07T03:22:05;100264.56;;;6.14;92.20
59435;BME280;45241;49.768;8.636;2022-12-07T03:25:15;100256.31;;;6.33;94.12
59435;BME280;45241;49.768;8.636;2022-12-07T03:27:24;100259.81;;;6.42;92.89
59435;BME280;45241;49.768;8.636;2022-12-07T03:30:37;100260.56;;;6.10;97.40
59435;BME280;45241;49.768;8.636;2022-12-07T03:32:50;100270.38;;;6.18;96.08
59435;BME280;45241;49.768;8.636;2022-12-07T03:35:28;100265.66;;;6.54;95.23
59435;BME280;45241;49.768;8.636;2022-12-07T03:37:56;100263.28;;;6.26;98.40
59435;BME280;45241;49.768;8.636;2022-12-07T03:42:59;100260.59;;;6.26;98.42
59435;BME280;45241;49.768;8.636;2022-12-07T03:45:31;100254.16;;;6.45;97.82
59435;BME280;45241;49.768;8.636;2022-12-07T03:48:02;100258.16;;;6.49;96.69
59435;BME280;45241;49.768;8.636;2022-12-07T03:50:38;100257.31;;;6.57;96.37
59435;BME280;45241;49.768;8.636;2022-12-07T03:53:14;100256.56;;;6.14;99.58
59435;BME280;45241;49.768;8.636;2022-12-07T03:55:42;100259.28;;;6.22;100.00
59435;BME280;45241;49.768;8.636;2022-12-07T03:58:09;100254.97;;;6.37;97.96
59435;BME280;45241;49.768;8.636;2022-12-07T04:00:36;100250.50;;;6.54;98.13
59435;BME280;45241;49.768;8.636;2022-12-07T04:03:01;100250.31;;;6.31;100.00
59435;BME280;45241;49.768;8.636;2022-12-07T04:05:26;100256.19;;;5.93;100.00
59435;BME280;45241;49.768;8.636;2022-12-07T04:07:52;100255.59;;;6.15;98.68
59435;BME280;45241;49.768;8.636;2022-12-07T04:10:17;100256.63;;;6.30;100.00
59435;BME280;45241;49.768;8.636;2022-12-07T04:12:43;100261.16;;;6.54;99.08
59435;BME280;45241;49.768;8.636;2022-12-07T04:15:08;100257.66;;;6.54;97.15
59435;BME280;45241;49.768;8.636;2022-12-07T04:17:33;100259.59;;;6.27;98.36
59435;BME280;45241;49.768;8.636;2022-12-07T04:19:59;100255.16;;;6.44;98.50
59435;BME280;45241;49.768;8.636;2022-12-07T04:22:24;100258.00;;;6.59;98.46
59435;BME280;45241;49.768;8.636;2022-12-07T04:24:49;100256.84;;;6.69;98.08
59435;BME280;45241;49.768;8.636;2022-12-07T04:27:14;100249.72;;;6.70;98.46
59435;BME280;45241;49.768;8.636;2022-12-07T04:29:39;100252.34;;;6.62;98.75
59435;BME280;45241;49.768;8.636;2022-12-07T04:32:05;100252.34;;;6.54;100.00
59435;BME280;45241;49.768;8.636;2022-12-07T04:34:30;100250.00;;;6.34;100.00
59435;BME280;45241;49.768;8.636;2022-12-07T04:36:55;100257.91;;;6.10;100.00
59435;BME280;45241;49.768;8.636;2022-12-07T04:39:22;100244.66;;;6.42;100.00
59435;BME280;45241;49.768;8.636;2022-12-07T04:41:47;100247.63;;;6.23;99.70
59435;BME280;45241;49.768;8.636;2022-12-07T04:44:13;100246.19;;;6.61;98.49
59435;BME280;45241;49.768;8.636;2022-12-07T04:46:39;100245.31;;;6.28;99.24
59435;BME280;45241;49.768;8.636;2022-12-07T04:49:04;100253.59;;;6.17;100.00
59435;BME280;45241;49.768;8.636;2022-12-07T04:51:30;100244.16;;;6.31;99.38
59435;BME280;45241;49.768;8.636;2022-12-07T04:53:55;100244.34;;;5.87;98.92
59435;BME280;45241;49.768;8.636;2022-12-07T04:56:21;100242.97;;;6.25;100.00
59435;BME280;45241;49.768;8.636;2022-12-07T04:58:47;100240.66;;;6.38;98.15
59435;BME280;45241;49.768;8.636;2022-12-07T05:01:13;100238.06;;;5.96;100.00
59435;BME280;45241;49.768;8.636;2022-12-07T05:03:38;100240.53;;;6.48;99.25
59435;BME280;45241;49.768;8.636;2022-12-07T05:06:04;100235.38;;;6.47;98.47
59435;BME280;45241;49.768;8.636;2022-12-07T05:08:29;100238.66;;;6.40;99.66
59435;BME280;45241;49.768;8.636;2022-12-07T05:10:55;100239.00;;;6.54;97.47
59435;BME280;45241;49.768;8.636;2022-12-07T05:13:20;100240.53;;;6.48;99.19
59435;BME280;45241;49.768;8.636;2022-12-07T05:15:46;100243.66;;;6.43;96.90
59435;BME280;45241;49.768;8.636;2022-12-07T05:18:11;100232.38;;;6.58;97.20
59435;BME280;45241;49.768;8.636;2022-12-07T05:20:37;100239.31;;;6.26;98.20
59435;BME280;45241;49.768;8.636;2022-12-07T05:23:03;100247.13;;;5.77;100.00
59435;BME280;45241;49.768;8.636;2022-12-07T05:25:28;100246.97;;;5.71;100.00
59435;BME280;45241;49.768;8.636;2022-12-07T05:27:54;100237.19;;;5.79;100.00
59435;BME280;45241;49.768;8.636;2022-12-07T05:30:19;100246.25;;;5.35;100.00
59435;BME280;45241;49.768;8.636;2022-12-07T05:32:45;100259.94;;;5.40;100.00
59435;BME280;45241;49.768;8.636;2022-12-07T05:35:10;100246.75;;;5.64;100.00
59435;BME280;45241;49.768;8.636;2022-12-07T05:37:35;100238.78;;;6.06;98.33
59435;BME280;45241;49.768;8.636;2022-12-07T05:40:00;100236.19;;;6.31;98.24
59435;BME280;45241;49.768;8.636;2022-12-07T05:42:25;100234.59;;;5.96;100.00
59435;BME280;45241;49.768;8.636;2022-12-07T05:44:50;100236.03;;;6.49;98.35
59435;BME280;45241;49.768;8.636;2022-12-07T05:47:16;100237.38;;;6.61;97.60
59435;BME280;45241;49.768;8.636;2022-12-07T05:49:44;100237.72;;;6.58;97.18
59435;BME280;45241;49.768;8.636;2022-12-07T05:52:09;100235.69;;;6.68;95.82
59435;BME280;45241;49.768;8.636;2022-12-07T05:54:34;100240.69;;;6.63;96.18
59435;BME280;45241;49.768;8.636;2022-12-07T05:57:00;100234.66;;;6.28;97.58
59435;BME280;45241;49.768;8.636;2022-12-07T05:59:25;100233.53;;;6.55;97.06
59435;BME280;45241;49.768;8.636;2022-12-07T06:01:55;100240.03;;;5.52;100.00
59435;BME280;45241;49.768;8.636;2022-12-07T06:04:21;100240.75;;;5.28;100.00
59435;BME280;45241;49.768;8.636;2022-12-07T06:06:46;100236.47;;;6.20;100.00
59435;BME280;45241;49.768;8.636;2022-12-07T06:09:12;100236.66;;;6.26;100.00
59435;BME280;45241;49.768;8.636;2022-12-07T06:11:37;100239.66;;;6.39;98.36
59435;BME280;45241;49.768;8.636;2022-12-07T06:14:21;100235.41;;;5.96;100.00
59435;BME280;45241;49.768;8.636;2022-12-07T06:16:47;100231.00;;;6.29;99.20
59435;BME280;45241;49.768;8.636;2022-12-07T06:19:12;100232.84;;;6.37;97.78
59435;BME280;45241;49.768;8.636;2022-12-07T06:21:37;100232.38;;;6.66;96.56
59435;BME280;45241;49.768;8.636;2022-12-07T06:24:03;100230.81;;;6.23;98.81
59435;BME280;45241;49.768;8.636;2022-12-07T06:26:28;100239.28;;;6.10;100.00
59435;BME280;45241;49.768;8.636;2022-12-07T06:28:53;100240.69;;;6.47;98.92
59435;BME280;45241;49.768;8.636;2022-12-07T06:31:18;100236.19;;;6.55;97.27
59435;BME280;45241;49.768;8.636;2022-12-07T06:33:44;100234.88;;;6.59;96.59
59435;BME280;45241;49.768;8.636;2022-12-07T06:36:09;100229.31;;;6.28;99.64
59435;BME280;45241;49.768;8.636;2022-12-07T06:38:34;100238.53;;;6.50;98.87
59435;BME280;45241;49.768;8.636;2022-12-07T06:41:00;100242.53;;;6.62;97.43
59435;BME280;45241;49.768;8.636;2022-12-07T06:43:25;100240.81;;;6.21;99.85
59435;BME280;45241;49.768;8.636;2022-12-07T06:45:50;100235.66;;;6.43;98.11
59435;BME280;45241;49.768;8.636;2022-12-07T06:48:15;100231.69;;;6.31;99.95
59435;BME280;45241;49.768;8.636;2022-12-07T06:50:41;100234.13;;;6.17;99.06
59435;BME280;45241;49.768;8.636;2022-12-07T06:53:06;100242.59;;;6.12;99.33
59435;BME280;45241;49.768;8.636;2022-12-07T06:55:31;100239.16;;;6.36;98.75
59435;BME280;45241;49.768;8.636;2022-12-07T06:57:56;100232.00;;;6.36;96.44
59435;BME280;45241;49.768;8.636;2022-12-07T07:00:21;100234.63;;;6.12;99.04
59435;BME280;45241;49.768;8.636;2022-12-07T07:02:47;100235.47;;;6.21;97.58
59435;BME280;45241;49.768;8.636;2022-12-07T07:05:12;100238.47;;;5.75;100.00
59435;BME280;45241;49.768;8.636;2022-12-07T07:07:37;100246.75;;;6.14;98.89
59435;BME280;45241;49.768;8.636;2022-12-07T07:10:02;100242.31;;;6.39;99.23
59435;BME280;45241;49.768;8.636;2022-12-07T07:12:28;100244.28;;;6.13;100.00
59435;BME280;45241;49.768;8.636;2022-12-07T07:14:53;100245.69;;;6.50;97.56
59435;BME280;45241;49.768;8.636;2022-12-07T07:17:18;100254.16;;;6.53;97.49
59435;BME280;45241;49.768;8.636;2022-12-07T07:19:44;100253.91;;;6.06;100.00
59435;BME280;45241;49.768;8.636;2022-12-07T07:22:09;100254.66;;;6.32;99.65
59435;BME280;45241;49.768;8.636;2022-12-07T07:24:34;100251.91;;;6.16;100.00
59435;BME280;45241;49.768;8.636;2022-12-07T07:26:59;100256.41;;;6.16;98.58
59435;BME280;45241;49.768;8.636;2022-12-07T07:29:24;100251.34;;;6.55;97.70
59435;BME280;45241;49.768;8.636;2022-12-07T07:31:50;100253.31;;;6.53;97.23
59435;BME280;45241;49.768;8.636;2022-12-07T07:34:15;100259.50;;;6.69;96.02
59435;BME280;45241;49.768;8.636;2022-12-07T07:36:40;100264.91;;;6.11;100.00
59435;BME280;45241;49.768;8.636;2022-12-07T07:39:05;100257.97;;;6.34;100.00
59435;BME280;45241;49.768;8.636;2022-12-07T07:41:30;100258.44;;;6.22;100.00
59435;BME280;45241;49.768;8.636;2022-12-07T07:43:56;100260.31;;;6.37;99.02
59435;BME280;45241;49.768;8.636;2022-12-07T07:46:21;100267.66;;;6.52;97.75
59435;BME280;45241;49.768;8.636;2022-12-07T07:48:46;100261.94;;;6.22;99.01
59435;BME280;45241;49.768;8.636;2022-12-07T07:51:12;100261.97;;;6.38;97.30
59435;BME280;45241;49.768;8.636;2022-12-07T07:53:37;100262.50;;;6.58;95.90
59435;BME280;45241;49.768;8.636;2022-12-07T07:56:02;100263.28;;;6.26;96.33
59435;BME280;45241;49.768;8.636;2022-12-07T07:58:27;100261.81;;;6.32;98.01
59435;BME280;45241;49.768;8.636;2022-12-07T08:00:52;100265.47;;;6.31;98.16
59435;BME280;45241;49.768;8.636;2022-12-07T08:03:18;100268.97;;;6.39;97.37
59435;BME280;45241;49.768;8.636;2022-12-07T08:05:43;100263.78;;;6.38;99.62
59435;BME280;45241;49.768;8.636;2022-12-07T08:08:08;100266.66;;;6.61;97.43
59435;BME280;45241;49.768;8.636;2022-12-07T08:10:33;100268.81;;;6.65;96.83
59435;BME280;45241;49.768;8.636;2022-12-07T08:13:00;100270.00;;;6.71;96.64
59435;BME280;45241;49.768;8.636;2022-12-07T08:15:42;100277.16;;;6.04;99.28
59435;BME280;45241;49.768;8.636;2022-12-07T08:18:07;100268.97;;;6.31;98.15
59435;BME280;45241;49.768;8.636;2022-12-07T08:20:33;100271.63;;;6.56;97.58
59435;BME280;45241;49.768;8.636;2022-12-07T08:22:59;100272.94;;;6.35;98.38
59435;BME280;45241;49.768;8.636;2022-12-07T08:25:24;100275.66;;;6.60;97.28
59435;BME280;45241;49.768;8.636;2022-12-07T08:27:50;100276.41;;;6.28;100.00
59435;BME280;45241;49.768;8.636;2022-12-07T08:30:15;100283.69;;;6.09;99.67
59435;BME280;45241;49.768;8.636;2022-12-07T08:32:40;100292.75;;;5.91;100.00
59435;BME280;45241;49.768;8.636;2022-12-07T08:35:06;100291.56;;;6.27;100.00
59435;BME280;45241;49.768;8.636;2022-12-07T08:37:31;100275.47;;;6.45;98.39
59435;BME280;45241;49.768;8.636;2022-12-07T08:39:57;100279.00;;;6.62;98.63
59435;BME280;45241;49.768;8.636;2022-12-07T08:42:22;100279.66;;;6.64;96.47
59435;BME280;45241;49.768;8.636;2022-12-07T08:44:52;100282.47;;;6.62;96.35
59435;BME280;45241;49.768;8.636;2022-12-07T08:47:17;100277.47;;;6.67;96.45
59435;BME280;45241;49.768;8.636;2022-12-07T08:49:43;100290.19;;;6.07;100.00
59435;BME280;45241;49.768;8.636;2022-12-07T08:52:10;100284.75;;;6.41;100.00
59435;BME280;45241;49.768;8.636;2022-12-07T08:54:36;100285.28;;;6.53;98.63
59435;BME280;45241;49.768;8.636;2022-12-07T08:57:02;100294.03;;;6.21;100.00
59435;BME280;45241;49.768;8.636;2022-12-07T08:59:28;100290.75;;;6.35;98.47
59435;BME280;45241;49.768;8.636;2022-12-07T09:01:53;100282.91;;;6.25;98.31
59435;BME280;45241;49.768;8.636;2022-12-07T09:04:18;100287.75;;;6.38;97.41
59435;BME280;45241;49.768;8.636;2022-12-07T09:06:44;100282.31;;;6.64;97.50
59435;BME280;45241;49.768;8.636;2022-12-07T09:09:09;100288.00;;;6.85;95.73
59435;BME280;45241;49.768;8.636;2022-12-07T09:11:35;100285.59;;;6.33;97.27
59435;BME280;45241;49.768;8.636;2022-12-07T09:14:00;100283.91;;;6.24;98.42
59435;BME280;45241;49.768;8.636;2022-12-07T09:16:25;100287.59;;;6.31;99.47
59435;BME280;45241;49.768;8.636;2022-12-07T09:18:51;100279.47;;;6.49;98.00
59435;BME280;45241;49.768;8.636;2022-12-07T09:21:16;100290.28;;;5.97;100.00
59435;BME280;45241;49.768;8.636;2022-12-07T09:23:41;100288.47;;;6.48;99.63
59435;BME280;45241;49.768;8.636;2022-12-07T09:26:07;100288.50;;;6.72;98.41
59435;BME280;45241;49.768;8.636;2022-12-07T09:28:32;100287.00;;;6.70;97.77
59435;BME280;45241;49.768;8.636;2022-12-07T09:30:58;100290.09;;;6.41;99.87
59435;BME280;45241;49.768;8.636;2022-12-07T09:33:23;100288.97;;;6.68;98.12
59435;BME280;45241;49.768;8.636;2022-12-07T09:35:49;100294.19;;;7.18;95.80
59435;BME280;45241;49.768;8.636;2022-12-07T09:38:15;100289.53;;;7.04;95.57
59435;BME280;45241;49.768;8.636;2022-12-07T09:40:40;100285.38;;;7.01;97.14
59435;BME280;45241;49.768;8.636;2022-12-07T09:43:11;100283.03;;;7.23;95.88
59435;BME280;45241;49.768;8.636;2022-12-07T09:45:37;100287.44;;;6.33;99.04
59435;BME280;45241;49.768;8.636;2022-12-07T09:48:03;100289.69;;;7.11;95.69
59435;BME280;45241;49.768;8.636;2022-12-07T09:50:29;100289.53;;;7.04;95.57
59435;BME280;45241;49.768;8.636;2022-12-07T09:52:55;100289.03;;;7.00;97.65
59435;BME280;45241;49.768;8.636;2022-12-07T09:55:22;100289.03;;;7.25;94.73
59435;BME280;45241;49.768;8.636;2022-12-07T09:57:49;100279.50;;;7.39;94.27
59435;BME280;45241;49.768;8.636;2022-12-07T10:00:17;100279.47;;;7.47;93.32
59435;BME280;45241;49.768;8.636;2022-12-07T10:02:47;100285.66;;;6.90;96.80
59435;BME280;45241;49.768;8.636;2022-12-07T10:05:21;100275.53;;;7.02;97.15
59435;BME280;45241;49.768;8.636;2022-12-07T10:07:48;100276.31;;;6.94;96.17
59435;BME280;45241;49.768;8.636;2022-12-07T10:10:15;100274.72;;;7.01;95.38
59435;BME280;45241;49.768;8.636;2022-12-07T10:13:01;100271.31;;;7.40;94.59
59435;BME280;45241;49.768;8.636;2022-12-07T10:18:16;100263.84;;;7.19;95.08
59435;BME280;45241;49.768;8.636;2022-12-07T10:20:42;100266.00;;;6.99;96.87
59435;BME280;45241;49.768;8.636;2022-12-07T10:23:08;100253.38;;;6.85;98.33
59435;BME280;45241;49.768;8.636;2022-12-07T10:25:38;100256.19;;;7.16;100.00
59435;BME280;45241;49.768;8.636;2022-12-07T10:30:34;100249.69;;;7.35;94.72
59435;BME280;45241;49.768;8.636;2022-12-07T10:35:55;100253.97;;;7.44;96.44
59435;BME280;45241;49.768;8.636;2022-12-07T10:38:20;100245.66;;;7.31;95.47
59435;BME280;45241;49.768;8.636;2022-12-07T10:40:45;100247.97;;;7.34;96.24
59435;BME280;45241;49.768;8.636;2022-12-07T10:45:38;100256.47;;;7.46;97.64
59435;BME280;45241;49.768;8.636;2022-12-07T10:48:12;100253.00;;;7.37;98.18
59435;BME280;45241;49.768;8.636;2022-12-07T10:50:49;100240.38;;;6.98;98.19
59435;BME280;45241;49.768;8.636;2022-12-07T10:53:25;100244.59;;;7.65;96.28
59435;BME280;45241;49.768;8.636;2022-12-07T10:56:16;100245.31;;;7.34;97.64
59435;BME280;45241;49.768;8.636;2022-12-07T11:11:42;100219.03;;;7.15;95.33
59435;BME280;45241;49.768;8.636;2022-12-07T11:19:17;100206.22;;;7.66;92.59
59435;BME280;45241;49.768;8.636;2022-12-07T11:22:03;100211.28;;;7.52;95.05
59435;BME280;45241;49.768;8.636;2022-12-07T11:26:59;100207.31;;;7.48;93.41
59435;BME280;45241;49.768;8.636;2022-12-07T11:32:17;100191.63;;;7.45;91.70
59435;BME280;45241;49.768;8.636;2022-12-07T11:37:32;100187.63;;;7.49;93.19
59435;BME280;45241;49.768;8.636;2022-12-07T11:40:00;100189.59;;;7.55;91.08
59435;BME280;45241;49.768;8.636;2022-12-07T11:42:30;100179.44;;;7.51;92.82
59435;BME280;45241;49.768;8.636;2022-12-07T11:44:57;100183.44;;;7.86;90.70
59435;BME280;45241;49.768;8.636;2022-12-07T11:52:44;100179.38;;;7.67;89.12
59435;BME280;45241;49.768;8.636;2022-12-07T11:55:19;100168.94;;;8.11;89.80
59435;BME280;45241;49.768;8.636;2022-12-07T11:57:48;100174.78;;;7.84;90.58
59435;BME280;45241;49.768;8.636;2022-12-07T12:00:16;100170.22;;;7.93;90.74
59435;BME280;45241;49.768;8.636;2022-12-07T12:05:36;100185.63;;;7.43;90.87
59435;BME280;45241;49.768;8.636;2022-12-07T12:08:10;100179.47;;;7.82;89.36
59435;BME280;45241;49.768;8.636;2022-12-07T12:13:16;100171.16;;;7.77;91.17
59435;BME280;45241;49.768;8.636;2022-12-07T12:20:49;100153.59;;;7.82;89.52
59435;BME280;45241;49.768;8.636;2022-12-07T12:23:34;100161.66;;;7.74;90.91
59435;BME280;45241;49.768;8.636;2022-12-07T12:26:01;100153.00;;;8.03;88.58
59435;BME280;45241;49.768;8.636;2022-12-07T12:28:29;100160.91;;;7.57;91.96
59435;BME280;45241;49.768;8.636;2022-12-07T12:31:04;100153.34;;;7.69;90.16
59435;BME280;45241;49.768;8.636;2022-12-07T12:33:30;100147.66;;;7.72;91.63
59435;BME280;45241;49.768;8.636;2022-12-07T12:51:42;100134.03;;;7.59;90.52
59435;BME280;45241;49.768;8.636;2022-12-07T12:56:43;100121.19;;;8.16;88.91
59435;BME280;45241;49.768;8.636;2022-12-07T13:01:47;100120.28;;;8.24;87.71
59435;BME280;45241;49.768;8.636;2022-12-07T13:04:37;100122.06;;;8.09;86.76
59435;BME280;45241;49.768;8.636;2022-12-07T13:06:58;100114.84;;;8.17;86.61
59435;BME280;45241;49.768;8.636;2022-12-07T13:09:25;100115.38;;;7.90;89.29
59435;BME280;45241;49.768;8.636;2022-12-07T13:12:00;100112.50;;;7.69;87.93
59435;BME280;45241;49.768;8.636;2022-12-07T13:17:09;100099.41;;;8.05;88.44
59435;BME280;45241;49.768;8.636;2022-12-07T13:24:54;100100.84;;;8.15;86.30
59435;BME280;45241;49.768;8.636;2022-12-07T13:27:19;100097.81;;;8.18;85.14
59435;BME280;45241;49.768;8.636;2022-12-07T13:29:44;100099.75;;;8.25;84.97
59435;BME280;45241;49.768;8.636;2022-12-07T13:32:32;100094.25;;;8.03;85.82
59435;BME280;45241;49.768;8.636;2022-12-07T13:34:57;100097.09;;;8.02;84.43
59435;BME280;45241;49.768;8.636;2022-12-07T13:37:26;100096.78;;;7.97;85.50
59435;BME280;45241;49.768;8.636;2022-12-07T13:39:53;100097.56;;;8.05;85.75
59435;BME280;45241;49.768;8.636;2022-12-07T13:44:44;100097.09;;;8.02;83.88
59435;BME280;45241;49.768;8.636;2022-12-07T13:47:12;100095.72;;;8.06;83.28
59435;BME280;45241;49.768;8.636;2022-12-07T13:49:47;100088.13;;;8.17;83.93
59435;BME280;45241;49.768;8.636;2022-12-07T13:52:14;100091.50;;;8.34;82.83
59435;BME280;45241;49.768;8.636;2022-12-07T13:55:00;100096.63;;;8.59;82.68
59435;BME280;45241;49.768;8.636;2022-12-07T13:57:26;100095.22;;;8.48;82.88
59435;BME280;45241;49.768;8.636;2022-12-07T13:59:52;100101.50;;;8.55;82.94
59435;BME280;45241;49.768;8.636;2022-12-07T14:02:35;100094.75;;;8.44;81.04
59435;BME280;45241;49.768;8.636;2022-12-07T14:05:23;100102.41;;;8.62;83.08
59435;BME280;45241;49.768;8.636;2022-12-07T14:08:05;100094.06;;;8.80;83.27
59435;BME280;45241;49.768;8.636;2022-12-07T14:10:41;100092.56;;;8.77;83.22
59435;BME280;45241;49.768;8.636;2022-12-07T14:16:05;100096.06;;;8.63;83.49
59435;BME280;45241;49.768;8.636;2022-12-07T14:18:43;100092.31;;;8.72;82.74
59435;BME280;45241;49.768;8.636;2022-12-07T14:23:33;100098.09;;;8.61;83.24
59435;BME280;45241;49.768;8.636;2022-12-07T14:26:12;100105.09;;;8.62;83.45
59435;BME280;45241;49.768;8.636;2022-12-07T14:28:41;100089.84;;;8.33;82.96
59435;BME280;45241;49.768;8.636;2022-12-07T14:31:13;100088.41;;;8.60;82.41
59435;BME280;45241;49.768;8.636;2022-12-07T14:33:39;100094.50;;;8.54;82.97
59435;BME280;45241;49.768;8.636;2022-12-07T14:36:05;100090.22;;;8.45;83.53
59435;BME280;45241;49.768;8.636;2022-12-07T14:38:30;100092.28;;;8.58;83.05
59435;BME280;45241;49.768;8.636;2022-12-07T14:40:55;100088.97;;;8.56;83.77
59435;BME280;45241;49.768;8.636;2022-12-07T14:43:41;100086.06;;;8.28;83.23